createdAt,value
2023-06-22T00:01:25.412Z,18.33
2023-06-22T00:03:54.814Z,17.95
2023-06-22T00:06:22.845Z,17.55
2023-06-22T00:08:50.835Z,20.35
2023-06-22T00:11:18.808Z,19.40
2023-06-22T00:13:48.384Z,18.25
2023-06-22T00:16:16.487Z,19.73
2023-06-22T00:18:48.122Z,18.05
2023-06-22T00:21:17.519Z,17.63
2023-06-22T00:23:45.444Z,18.75
2023-06-22T00:26:13.520Z,19.77
2023-06-22T00:28:41.536Z,18.67
2023-06-22T00:31:09.584Z,18.50
2023-06-22T00:33:37.588Z,19.27
2023-06-22T00:36:06.174Z,18.65
2023-06-22T00:38:35.454Z,17.95
2023-06-22T00:41:03.355Z,19.95
2023-06-22T00:43:31.317Z,18.77
2023-06-22T00:45:59.269Z,19.85
2023-06-22T00:48:27.983Z,21.52
2023-06-22T00:50:57.032Z,19.50
2023-06-22T00:53:24.986Z,20.52
2023-06-22T00:55:54.389Z,21.33
2023-06-22T00:58:23.539Z,21.67
2023-06-22T01:00:51.526Z,21.83
2023-06-22T01:03:21.933Z,22.73
2023-06-22T01:05:52.035Z,24.58
2023-06-22T01:08:29.502Z,22.42
2023-06-22T01:11:06.042Z,22.38
2023-06-22T01:13:39.788Z,22.02
2023-06-22T01:16:10.591Z,23.58
2023-06-22T01:18:42.434Z,25.40
2023-06-22T01:21:14.337Z,24.60
2023-06-22T01:23:53.842Z,23.15
2023-06-22T01:26:30.589Z,21.77
2023-06-22T01:29:01.771Z,23.77
2023-06-22T01:31:31.529Z,24.42
2023-06-22T01:34:02.506Z,26.58
2023-06-22T01:36:31.742Z,23.00
2023-06-22T01:39:00.554Z,25.40
2023-06-22T01:41:30.745Z,26.90
2023-06-22T01:44:01.291Z,24.05
2023-06-22T01:46:29.558Z,24.48
2023-06-22T01:48:57.977Z,23.80
2023-06-22T01:51:26.435Z,25.25
2023-06-22T01:53:54.463Z,25.52
2023-06-22T01:56:22.445Z,25.42
2023-06-22T01:59:06.921Z,27.10
2023-06-22T02:01:43.254Z,27.02
2023-06-22T02:04:15.877Z,26.70
2023-06-22T02:06:47.298Z,26.77
2023-06-22T02:09:19.369Z,25.47
2023-06-22T02:11:49.746Z,26.58
2023-06-22T02:14:19.788Z,27.85
2023-06-22T02:16:49.645Z,27.27
2023-06-22T02:19:19.563Z,25.25
2023-06-22T02:21:47.792Z,25.70
2023-06-22T02:24:15.811Z,24.48
2023-06-22T02:26:46.655Z,26.80
2023-06-22T02:29:14.791Z,26.85
2023-06-22T02:31:42.966Z,28.13
2023-06-22T02:34:19.139Z,29.23
2023-06-22T02:36:51.723Z,27.45
2023-06-22T02:39:23.136Z,30.75
2023-06-22T02:41:51.207Z,29.97
2023-06-22T02:44:19.502Z,33.78
2023-06-22T02:46:47.755Z,29.85
2023-06-22T02:49:17.330Z,31.85
2023-06-22T02:51:48.380Z,29.85
2023-06-22T02:54:17.388Z,31.95
2023-06-22T02:56:45.842Z,32.65
2023-06-22T02:59:14.086Z,29.85
2023-06-22T03:01:42.081Z,29.98
2023-06-22T03:04:10.180Z,31.50
2023-06-22T03:06:41.689Z,33.40
2023-06-22T03:09:10.034Z,33.83
2023-06-22T03:11:38.055Z,30.20
2023-06-22T03:14:05.996Z,30.00
2023-06-22T03:16:34.159Z,31.05
2023-06-22T03:19:02.241Z,34.05
2023-06-22T03:21:31.035Z,34.28
2023-06-22T03:24:01.588Z,37.08
2023-06-22T03:26:30.937Z,34.80
2023-06-22T03:28:59.155Z,37.67
2023-06-22T03:31:27.191Z,36.55
2023-06-22T03:33:55.165Z,38.22
2023-06-22T03:36:23.391Z,34.13
2023-06-22T03:38:52.731Z,35.58
2023-06-22T03:41:22.201Z,38.33
2023-06-22T03:43:50.233Z,33.03
2023-06-22T03:46:18.393Z,33.72
2023-06-22T03:48:46.486Z,36.05
2023-06-22T03:51:14.567Z,37.22
2023-06-22T03:53:42.577Z,34.50
2023-06-22T03:56:10.495Z,37.80
2023-06-22T03:58:44.018Z,35.80
2023-06-22T04:01:13.067Z,32.95
2023-06-22T04:03:41.150Z,35.90
2023-06-22T04:06:09.170Z,35.25
2023-06-22T04:08:37.193Z,33.70
2023-06-22T04:11:06.151Z,34.80
2023-06-22T04:13:34.152Z,36.70
2023-06-22T04:16:03.657Z,42.33
2023-06-22T04:18:31.690Z,39.28
2023-06-22T04:20:59.665Z,39.60
2023-06-22T04:23:27.746Z,40.05
2023-06-22T04:25:57.517Z,38.75
2023-06-22T04:28:27.909Z,40.58
2023-06-22T04:30:59.455Z,41.40
2023-06-22T04:33:30.367Z,38.78
2023-06-22T04:35:59.209Z,42.38
2023-06-22T04:38:27.260Z,39.30
2023-06-22T04:40:55.592Z,39.08
2023-06-22T04:43:23.720Z,38.60
2023-06-22T04:45:53.935Z,38.20
2023-06-22T04:48:21.917Z,39.92
2023-06-22T04:50:51.444Z,37.63
2023-06-22T04:53:19.521Z,39.45
2023-06-22T04:55:50.219Z,41.30
2023-06-22T04:58:21.108Z,41.05
2023-06-22T05:00:51.601Z,43.60
2023-06-22T05:03:20.884Z,39.25
2023-06-22T05:05:49.277Z,40.08
2023-06-22T05:08:19.016Z,37.53
2023-06-22T05:10:59.853Z,35.60
2023-06-22T05:13:32.686Z,38.30
2023-06-22T05:16:03.538Z,39.85
2023-06-22T05:18:32.431Z,38.95
2023-06-22T05:21:01.097Z,37.00
2023-06-22T05:23:30.553Z,37.75
2023-06-22T05:25:59.103Z,38.95
2023-06-22T05:28:27.445Z,35.83
2023-06-22T05:30:55.646Z,35.47
2023-06-22T05:33:23.656Z,36.13
2023-06-22T05:35:51.668Z,36.47
2023-06-22T05:38:19.743Z,36.05
2023-06-22T05:40:49.077Z,32.83
2023-06-22T05:43:18.213Z,34.60
2023-06-22T05:45:46.250Z,34.05
2023-06-22T05:48:14.278Z,33.55
2023-06-22T05:50:42.413Z,33.60
2023-06-22T05:53:10.543Z,31.77
2023-06-22T05:55:38.633Z,28.50
2023-06-22T05:58:08.179Z,30.90
2023-06-22T06:00:36.545Z,31.20
2023-06-22T06:03:05.302Z,28.85
2023-06-22T06:05:33.657Z,29.27
2023-06-22T06:08:02.881Z,28.05
2023-06-22T06:10:31.872Z,29.17
2023-06-22T06:13:00.384Z,26.75
2023-06-22T06:15:30.177Z,25.13
2023-06-22T06:17:58.310Z,24.30
2023-06-22T06:20:30.207Z,25.52
2023-06-22T06:22:58.873Z,25.83
2023-06-22T06:25:27.034Z,23.73
2023-06-22T06:27:56.809Z,23.13
2023-06-22T06:30:25.106Z,22.02
2023-06-22T06:32:54.640Z,21.15
2023-06-22T06:35:22.846Z,20.48
2023-06-22T06:37:52.361Z,21.25
2023-06-22T06:40:21.116Z,20.40
2023-06-22T06:42:50.460Z,20.38
2023-06-22T06:45:20.463Z,18.08
2023-06-22T06:47:49.001Z,17.98
2023-06-22T06:50:18.843Z,20.02
2023-06-22T06:52:46.992Z,17.33
2023-06-22T06:55:15.226Z,17.92
2023-06-22T06:57:44.332Z,19.05
2023-06-22T07:00:16.228Z,18.88
2023-06-22T07:02:45.694Z,16.30
2023-06-22T07:05:14.584Z,16.42
2023-06-22T07:07:44.339Z,16.95
2023-06-22T07:10:12.590Z,15.73
2023-06-22T07:12:40.637Z,16.65
2023-06-22T07:15:10.590Z,14.60
2023-06-22T07:17:40.374Z,14.50
2023-06-22T07:20:11.691Z,15.18
2023-06-22T07:22:40.181Z,15.15
2023-06-22T07:25:11.190Z,15.30
2023-06-22T07:27:40.950Z,13.63
2023-06-22T07:30:10.055Z,15.15
2023-06-22T07:32:38.173Z,13.73
2023-06-22T07:35:07.505Z,12.70
2023-06-22T07:37:36.362Z,11.07
2023-06-22T07:40:07.771Z,12.63
2023-06-22T07:42:37.625Z,12.53
2023-06-22T07:45:07.046Z,10.13
2023-06-22T07:47:36.554Z,9.30
2023-06-22T07:50:06.031Z,6.93
2023-06-22T07:52:34.409Z,6.60
2023-06-22T07:55:03.286Z,6.82
2023-06-22T07:57:34.907Z,6.70
2023-06-22T08:00:12.517Z,5.53
2023-06-22T08:02:41.153Z,7.57
2023-06-22T08:05:20.004Z,7.38
2023-06-22T08:07:49.146Z,8.20
2023-06-22T08:10:17.778Z,7.40
2023-06-22T08:12:45.919Z,7.63
2023-06-22T08:15:15.356Z,6.47
2023-06-22T08:17:43.454Z,7.07
2023-06-22T08:20:13.576Z,7.70
2023-06-22T08:22:42.244Z,8.55
2023-06-22T08:25:11.480Z,7.82
2023-06-22T08:27:39.567Z,9.18
2023-06-22T08:30:09.612Z,8.32
2023-06-22T08:32:38.982Z,8.50
2023-06-22T08:35:09.284Z,8.65
2023-06-22T08:37:37.554Z,7.22
2023-06-22T08:40:08.926Z,7.20
2023-06-22T08:42:37.044Z,6.93
2023-06-22T08:45:05.532Z,7.97
2023-06-22T08:47:33.580Z,7.43
2023-06-22T08:50:04.123Z,8.00
2023-06-22T08:52:32.263Z,8.00
2023-06-22T08:55:00.511Z,7.20
2023-06-22T08:57:28.677Z,6.53
2023-06-22T08:59:59.633Z,6.65
2023-06-22T09:02:31.101Z,5.20
2023-06-22T09:04:59.665Z,5.00
2023-06-22T09:07:29.176Z,5.50
2023-06-22T09:09:58.230Z,4.57
2023-06-22T09:12:28.247Z,4.45
2023-06-22T09:14:56.236Z,4.60
2023-06-22T09:17:24.398Z,3.65
2023-06-22T09:19:52.412Z,2.80
2023-06-22T09:22:20.411Z,2.83
2023-06-22T09:24:49.732Z,2.88
2023-06-22T09:27:17.661Z,3.50
2023-06-22T09:29:45.641Z,2.72
2023-06-22T09:32:13.662Z,3.20
2023-06-22T09:34:41.912Z,3.78
2023-06-22T09:37:09.872Z,3.60
2023-06-22T09:39:38.343Z,5.50
2023-06-22T09:42:08.718Z,5.97
2023-06-22T09:44:36.797Z,5.28
2023-06-22T09:47:05.150Z,6.18
2023-06-22T09:49:47.261Z,5.95
2023-06-22T09:52:15.759Z,6.90
2023-06-22T09:54:43.750Z,9.20
2023-06-22T09:57:13.163Z,7.53
2023-06-22T09:59:41.664Z,7.75
2023-06-22T10:02:10.148Z,6.40
2023-06-22T10:04:38.678Z,6.20
2023-06-22T10:07:07.393Z,5.70
2023-06-22T10:09:35.416Z,6.63
2023-06-22T10:12:03.430Z,6.47
2023-06-22T10:14:32.790Z,7.68
2023-06-22T10:17:00.868Z,6.85
2023-06-22T10:19:28.938Z,8.85
2023-06-22T10:21:56.954Z,7.65
2023-06-22T10:24:24.905Z,7.03
2023-06-22T10:26:52.873Z,7.38
2023-06-22T10:29:21.027Z,6.30
2023-06-22T10:31:50.478Z,6.05
2023-06-22T10:34:18.466Z,5.47
2023-06-22T10:36:49.517Z,5.80
2023-06-22T10:39:17.710Z,5.50
2023-06-22T10:41:45.694Z,6.18
2023-06-22T10:44:14.608Z,7.13
2023-06-22T10:46:42.584Z,7.68
2023-06-22T10:49:11.997Z,8.90
2023-06-22T10:51:39.999Z,9.68
2023-06-22T10:54:08.015Z,9.30
2023-06-22T10:56:35.968Z,8.25
2023-06-22T10:59:04.073Z,8.45
2023-06-22T11:01:36.428Z,7.32
2023-06-22T11:04:05.739Z,7.85
2023-06-22T11:06:35.342Z,8.70
2023-06-22T11:09:12.019Z,8.80
2023-06-22T11:11:54.635Z,8.50
2023-06-22T11:14:23.449Z,8.13
2023-06-22T11:16:51.621Z,10.82
2023-06-22T11:19:19.716Z,10.57
2023-06-22T11:21:49.199Z,9.10
2023-06-22T11:24:18.084Z,10.75
2023-06-22T11:26:46.122Z,9.50
2023-06-22T11:29:23.734Z,9.90
2023-06-22T11:31:56.061Z,9.70
2023-06-22T11:34:24.128Z,8.38
2023-06-22T11:36:53.498Z,8.80
2023-06-22T11:39:26.692Z,9.60
2023-06-22T11:42:02.417Z,9.60
2023-06-22T11:44:30.463Z,8.52
2023-06-22T11:46:58.399Z,9.10
2023-06-22T11:49:26.339Z,10.27
2023-06-22T11:51:55.746Z,9.90
2023-06-22T11:54:23.803Z,9.88
2023-06-22T11:56:51.851Z,11.00
2023-06-22T11:59:19.803Z,10.63
2023-06-22T12:01:48.651Z,11.85
2023-06-22T12:04:16.895Z,13.60
2023-06-22T12:06:44.888Z,13.13
2023-06-22T12:09:15.103Z,12.60
2023-06-22T12:11:43.334Z,12.40
2023-06-22T12:14:11.410Z,10.65
2023-06-22T12:16:39.730Z,11.90
2023-06-22T12:19:07.728Z,11.63
2023-06-22T12:21:35.771Z,12.43
2023-06-22T12:24:03.807Z,13.50
2023-06-22T12:26:33.152Z,12.98
2023-06-22T12:29:01.128Z,14.18
2023-06-22T12:31:29.167Z,12.75
2023-06-22T12:33:57.126Z,11.95
2023-06-22T12:36:25.670Z,12.48
2023-06-22T12:38:54.455Z,11.70
2023-06-22T12:41:24.458Z,11.35
2023-06-22T12:43:53.844Z,11.18
2023-06-22T12:46:21.800Z,11.57
2023-06-22T12:48:49.767Z,12.05
2023-06-22T12:51:24.137Z,10.35
2023-06-22T12:53:52.301Z,13.35
2023-06-22T12:56:20.369Z,14.18
2023-06-22T12:58:48.316Z,14.05
2023-06-22T13:01:19.276Z,14.85
2023-06-22T13:03:47.514Z,13.77
2023-06-22T13:06:15.567Z,14.68
2023-06-22T13:09:19.074Z,15.32
2023-06-22T13:11:32.429Z,15.48
2023-06-22T13:14:00.451Z,15.15
2023-06-22T13:16:29.805Z,14.43
2023-06-22T13:18:57.720Z,14.70
2023-06-22T13:21:25.719Z,14.70
2023-06-22T13:23:53.972Z,14.80
2023-06-22T13:26:24.069Z,13.10
2023-06-22T13:28:52.332Z,15.32
2023-06-22T13:31:20.510Z,15.20
2023-06-22T13:33:50.255Z,14.57
2023-06-22T13:36:19.362Z,15.05
2023-06-22T13:38:47.421Z,15.07
2023-06-22T13:41:15.491Z,16.02
2023-06-22T13:43:43.526Z,15.52
2023-06-22T13:46:11.596Z,15.38
2023-06-22T13:48:39.744Z,14.70
2023-06-22T13:51:09.143Z,15.25
2023-06-22T13:53:37.164Z,13.65
2023-06-22T13:56:05.548Z,15.70
2023-06-22T13:58:33.611Z,12.45
2023-06-22T14:01:01.607Z,13.80
2023-06-22T14:03:29.666Z,13.48
2023-06-22T14:05:59.137Z,13.57
2023-06-22T14:10:59.398Z,13.85
2023-06-22T14:13:27.348Z,13.68
2023-06-22T14:15:55.452Z,14.45
2023-06-22T14:18:24.410Z,15.13
2023-06-22T14:20:52.508Z,13.88
2023-06-22T14:23:20.534Z,14.23
2023-06-22T14:25:49.949Z,13.73
2023-06-22T14:28:18.547Z,13.93
2023-06-22T14:30:46.746Z,14.93
2023-06-22T14:33:14.958Z,14.77
2023-06-22T14:35:42.998Z,13.85
2023-06-22T14:38:10.952Z,13.77
2023-06-22T14:40:53.360Z,13.75
2023-06-22T14:43:28.290Z,14.35
2023-06-22T14:45:56.299Z,14.57
2023-06-22T14:48:24.425Z,15.82
2023-06-22T14:50:52.393Z,15.18
2023-06-22T14:53:20.595Z,15.38
2023-06-22T14:55:48.733Z,14.88
2023-06-22T14:58:16.797Z,14.57
2023-06-22T15:00:46.203Z,14.65
2023-06-22T15:03:18.655Z,14.68
2023-06-22T15:05:48.494Z,14.57
2023-06-22T15:08:16.592Z,15.27
2023-06-22T15:10:44.722Z,13.27
2023-06-22T15:13:12.714Z,15.05
2023-06-22T15:15:42.008Z,15.27
2023-06-22T15:18:11.505Z,14.95
2023-06-22T15:20:39.678Z,14.80
2023-06-22T15:23:09.714Z,14.65
2023-06-22T15:25:38.719Z,15.48
2023-06-22T15:28:08.282Z,15.80
2023-06-22T15:30:36.269Z,17.33
2023-06-22T15:33:04.696Z,18.35
2023-06-22T15:35:34.084Z,17.92
2023-06-22T15:38:02.875Z,18.50
2023-06-22T15:40:31.095Z,19.65
2023-06-22T15:43:00.790Z,16.50
2023-06-22T15:45:28.931Z,16.60
2023-06-22T15:47:57.031Z,17.48
2023-06-22T15:50:25.126Z,15.32
2023-06-22T15:52:54.476Z,16.45
2023-06-22T15:55:22.484Z,15.70
2023-06-22T15:57:50.456Z,14.52
2023-06-22T16:00:19.907Z,14.30
2023-06-22T16:02:48.730Z,13.90
2023-06-22T16:05:17.102Z,13.38
2023-06-22T16:07:45.098Z,13.30
2023-06-22T16:10:16.654Z,13.25
2023-06-22T16:12:45.651Z,12.80
2023-06-22T16:15:13.984Z,12.25
2023-06-22T16:17:42.177Z,12.90
2023-06-22T16:20:11.631Z,11.88
2023-06-22T16:22:39.712Z,11.40
2023-06-22T16:25:08.202Z,10.82
2023-06-22T16:27:37.544Z,10.48
2023-06-22T16:30:06.310Z,10.77
2023-06-22T16:32:34.351Z,11.18
2023-06-22T16:35:02.395Z,10.93
2023-06-22T16:37:30.586Z,10.88
2023-06-22T16:39:59.369Z,10.88
2023-06-22T16:42:27.383Z,10.60
2023-06-22T16:44:56.778Z,10.88
2023-06-22T16:47:24.846Z,10.15
2023-06-22T16:49:52.892Z,9.30
2023-06-22T16:52:20.918Z,9.23
2023-06-22T16:54:59.817Z,8.82
2023-06-22T16:57:28.869Z,8.02
2023-06-22T16:59:58.252Z,8.02
2023-06-22T17:02:27.734Z,6.70
2023-06-22T17:04:56.680Z,5.85
2023-06-22T17:07:27.533Z,6.18
2023-06-22T17:09:57.440Z,5.03
2023-06-22T17:12:26.947Z,5.05
2023-06-22T17:14:56.053Z,4.88
2023-06-22T17:17:27.791Z,4.60
2023-06-22T17:19:56.074Z,4.95
2023-06-22T17:22:24.506Z,4.57
2023-06-22T17:24:53.467Z,3.97
2023-06-22T17:27:29.713Z,4.00
2023-06-22T17:30:06.459Z,3.90
2023-06-22T17:32:35.832Z,3.97
2023-06-22T17:35:05.505Z,4.13
2023-06-22T17:37:49.387Z,3.90
2023-06-22T17:40:18.651Z,4.10
2023-06-22T17:42:47.027Z,4.30
2023-06-22T17:45:19.054Z,3.70
2023-06-22T17:47:53.374Z,3.88
2023-06-22T17:50:24.892Z,3.78
2023-06-22T17:52:54.347Z,4.00
2023-06-22T17:55:23.264Z,3.45
2023-06-22T17:57:57.439Z,3.45
2023-06-22T18:00:26.260Z,3.63
2023-06-22T18:02:59.203Z,3.50
2023-06-22T18:05:31.944Z,3.00
2023-06-22T18:08:01.197Z,3.60
2023-06-22T18:10:30.467Z,3.30
2023-06-22T18:13:00.712Z,3.10
2023-06-22T18:15:29.665Z,3.30
2023-06-22T18:18:01.092Z,3.30
2023-06-22T18:20:29.997Z,3.38
2023-06-22T18:22:59.741Z,3.30
2023-06-22T18:25:29.221Z,3.53
2023-06-22T18:27:57.614Z,3.30
2023-06-22T18:30:26.352Z,2.95
2023-06-22T18:32:54.490Z,3.10
2023-06-22T18:35:24.119Z,3.17
2023-06-22T18:37:56.252Z,3.28
2023-06-22T18:42:52.598Z,2.97
2023-06-22T18:45:24.922Z,3.42
2023-06-22T18:48:03.813Z,3.42
2023-06-22T18:50:43.566Z,3.50
2023-06-22T18:53:18.129Z,3.95
2023-06-22T18:55:47.156Z,3.85
2023-06-22T18:58:16.731Z,3.45
2023-06-22T19:00:44.827Z,3.33
2023-06-22T19:03:30.210Z,3.33
2023-06-22T19:05:59.737Z,3.45
2023-06-22T19:08:27.934Z,3.60
2023-06-22T19:11:12.409Z,3.28
2023-06-22T19:13:49.744Z,3.00
2023-06-22T19:16:18.156Z,3.35
2023-06-22T19:18:52.423Z,3.22
2023-06-22T19:21:24.633Z,3.50
2023-06-22T19:23:53.021Z,3.70
2023-06-22T19:26:22.654Z,3.42
2023-06-22T19:28:52.179Z,3.50
2023-06-22T19:31:21.473Z,3.85
2023-06-22T19:33:52.678Z,3.55
2023-06-22T19:36:23.502Z,3.97
2023-06-22T19:38:52.299Z,3.97
2023-06-22T19:41:23.338Z,3.95
2023-06-22T19:43:51.945Z,4.13
2023-06-22T19:46:20.085Z,4.05
2023-06-22T19:48:49.006Z,4.60
2023-06-22T19:51:17.051Z,4.00
2023-06-22T19:53:46.404Z,4.38
2023-06-22T19:56:14.378Z,4.45
2023-06-22T19:58:42.363Z,4.35
2023-06-22T20:01:10.472Z,4.40
2023-06-22T20:03:41.856Z,4.53
2023-06-22T20:06:11.914Z,4.75
2023-06-22T20:08:49.392Z,4.45
2023-06-22T20:11:26.362Z,4.63
2023-06-22T20:13:55.502Z,5.00
2023-06-22T20:16:24.463Z,5.05
2023-06-22T20:19:09.764Z,5.18
2023-06-22T20:21:39.691Z,4.78
2023-06-22T20:24:10.571Z,5.03
2023-06-22T20:26:42.002Z,5.32
2023-06-22T20:29:26.342Z,5.80
2023-06-22T20:32:08.620Z,5.32
2023-06-22T20:34:38.373Z,5.30
2023-06-22T20:37:07.269Z,5.35
2023-06-22T20:39:37.365Z,5.50
2023-06-22T20:42:06.878Z,5.75
2023-06-22T20:44:35.259Z,5.18
2023-06-22T20:47:04.802Z,4.95
2023-06-22T20:49:33.560Z,5.10
2023-06-22T20:52:07.209Z,5.40
2023-06-22T20:54:37.359Z,4.95
2023-06-22T20:57:06.036Z,4.88
2023-06-22T20:59:34.138Z,5.13
2023-06-22T21:02:02.332Z,4.70
2023-06-22T21:04:30.448Z,4.90
2023-06-22T21:06:58.573Z,5.38
2023-06-22T21:09:29.998Z,5.47
2023-06-22T21:12:01.877Z,4.85
2023-06-22T21:14:29.924Z,4.85
2023-06-22T21:16:57.912Z,4.57
2023-06-22T21:19:25.966Z,4.35
2023-06-22T21:21:54.382Z,4.68
2023-06-22T21:24:22.366Z,5.10
2023-06-22T21:26:50.526Z,5.45
2023-06-22T21:29:19.878Z,4.68
2023-06-22T21:31:48.122Z,4.93
2023-06-22T21:34:16.293Z,5.22
2023-06-22T21:36:44.303Z,4.70
2023-06-22T21:39:12.281Z,5.15
2023-06-22T21:41:40.315Z,4.78
2023-06-22T21:44:08.429Z,5.10
2023-06-22T21:46:37.927Z,5.18
2023-06-22T21:49:05.967Z,5.35
2023-06-22T21:51:35.172Z,5.47
2023-06-22T21:54:03.347Z,4.82
2023-06-22T21:56:31.448Z,5.60
2023-06-22T21:58:59.380Z,5.32
2023-06-22T22:01:27.503Z,5.20
2023-06-22T22:03:57.263Z,5.00
2023-06-22T22:06:25.258Z,5.20
2023-06-22T22:08:53.401Z,4.80
2023-06-22T22:11:21.507Z,4.35
2023-06-22T22:13:50.077Z,4.90
2023-06-22T22:16:18.292Z,5.25
2023-06-22T22:18:47.756Z,5.00
2023-06-22T22:21:17.079Z,4.40
2023-06-22T22:23:45.113Z,4.90
2023-06-22T22:26:13.175Z,5.80
2023-06-22T22:28:41.228Z,5.70
2023-06-22T22:31:09.298Z,5.47
2023-06-22T22:33:37.429Z,6.18
2023-06-22T22:36:06.416Z,6.15
2023-06-22T22:38:36.149Z,6.10
2023-06-22T22:41:04.211Z,5.90
2023-06-22T22:43:33.170Z,6.72
2023-06-22T22:46:01.682Z,6.78
2023-06-22T22:48:32.337Z,6.57
2023-06-22T22:51:00.572Z,6.90
2023-06-22T22:53:28.589Z,6.72
2023-06-22T22:55:58.399Z,6.80
2023-06-22T22:58:26.545Z,7.22
2023-06-22T23:00:55.165Z,6.95
2023-06-22T23:03:23.386Z,7.00
2023-06-22T23:05:52.324Z,7.25
2023-06-22T23:08:21.979Z,7.38
2023-06-22T23:10:50.276Z,7.68
2023-06-22T23:13:19.725Z,6.85
2023-06-22T23:15:47.816Z,7.32
2023-06-22T23:18:15.992Z,6.22
2023-06-22T23:20:44.039Z,6.40
2023-06-22T23:23:12.117Z,6.88
2023-06-22T23:25:40.411Z,6.20
2023-06-22T23:28:08.565Z,6.35
2023-06-22T23:30:39.648Z,5.75
2023-06-22T23:33:07.640Z,5.60
2023-06-22T23:35:35.647Z,5.53
2023-06-22T23:38:03.610Z,5.00
2023-06-22T23:40:31.842Z,5.57
2023-06-22T23:42:59.979Z,5.28
2023-06-22T23:45:28.060Z,5.70
2023-06-22T23:47:57.578Z,6.47
2023-06-22T23:50:25.680Z,6.05
2023-06-22T23:52:53.837Z,6.95
2023-06-22T23:55:24.617Z,7.20
2023-06-22T23:57:57.826Z,7.35
